Time;durP1;ratioP1;P1;durP2;ratioP2;P2;SDS_P1;SDS_P2;PMS_P1;PMS_P2;Temp;Humidity;BMP_temperature;BMP_pressure;BME280_temperature;BME280_humidity;BME280_pressure;Samples;Min_cycle;Max_cycle;Signal;HPM_P1;HPM_P2
2024/05/06 00:02:20;;;;;;;;;;;21.40;56.50;;;;;;5489200;26;1529;-90
2024/05/06 00:04:45;;;;;;;;;;;21.40;56.60;;;;;;5463521;26;1511;-91
2024/05/06 00:07:11;;;;;;;;;;;21.40;56.50;;;;;;5475479;26;1455;-91
2024/05/06 00:09:36;;;;;;;;;;;21.40;56.60;;;;;;5458746;26;1864;-91
2024/05/06 00:12:01;;;;;;;;;;;21.40;56.50;;;;;;5477317;26;1424;-91
2024/05/06 00:14:27;;;;;;;;;;;21.40;56.60;;;;;;5491722;26;1375;-90
2024/05/06 00:16:52;;;;;;;;;;;21.40;56.50;;;;;;5478673;26;1554;-91
2024/05/06 00:19:17;;;;;;;;;;;21.40;56.50;;;;;;5427303;26;1332;-92
2024/05/06 00:21:43;;;;;;;;;;;21.40;56.60;;;;;;5472373;26;1525;-91
2024/05/06 00:24:08;;;;;;;;;;;21.40;56.60;;;;;;5495517;26;1001;-91
2024/05/06 00:26:33;;;;;;;;;;;21.40;56.50;;;;;;5436097;26;1425;-91
2024/05/06 00:28:59;;;;;;;;;;;21.40;56.60;;;;;;5459012;26;1825;-91
2024/05/06 00:31:24;;;;;;;;;;;21.40;56.50;;;;;;5458931;26;923;-91
2024/05/06 00:33:49;;;;;;;;;;;21.40;56.50;;;;;;5459315;26;1426;-91
2024/05/06 00:36:15;;;;;;;;;;;21.40;56.50;;;;;;5416359;26;1442;-91
2024/05/06 00:38:40;;;;;;;;;;;21.40;56.50;;;;;;5458619;26;1097;-91
2024/05/06 00:41:06;;;;;;;;;;;21.40;56.50;;;;;;5410615;26;1613;-91
2024/05/06 00:43:31;;;;;;;;;;;21.40;56.50;;;;;;5488836;26;1435;-91
2024/05/06 00:45:56;;;;;;;;;;;21.40;56.40;;;;;;5494630;26;934;-91
2024/05/06 00:48:22;;;;;;;;;;;21.40;56.50;;;;;;5494659;26;1829;-92
2024/05/06 00:50:47;;;;;;;;;;;21.40;56.50;;;;;;5494848;26;1021;-91
2024/05/06 00:53:12;;;;;;;;;;;21.40;56.40;;;;;;5494555;26;1109;-91
2024/05/06 00:55:38;;;;;;;;;;;21.40;56.30;;;;;;5462802;26;1185;-91
2024/05/06 00:58:03;;;;;;;;;;;21.40;56.40;;;;;;5494516;26;954;-91
2024/05/06 01:00:29;;;;;;;;;;;21.40;56.30;;;;;;5494689;26;1064;-91
2024/05/06 01:02:54;;;;;;;;;;;21.40;56.30;;;;;;5431408;26;1389;-91
2024/05/06 01:05:20;;;;;;;;;;;21.40;56.40;;;;;;5456943;26;1796;-91
2024/05/06 01:07:45;;;;;;;;;;;21.40;56.30;;;;;;5458036;26;1868;-91
2024/05/06 01:10:10;;;;;;;;;;;21.40;56.30;;;;;;5457897;26;985;-91
2024/05/06 01:12:36;;;;;;;;;;;21.40;56.30;;;;;;5457768;26;1017;-91
2024/05/06 01:15:01;;;;;;;;;;;21.40;56.30;;;;;;5457847;26;1021;-91
2024/05/06 01:17:26;;;;;;;;;;;21.40;56.30;;;;;;5457952;26;977;-90
2024/05/06 01:19:52;;;;;;;;;;;21.40;56.30;;;;;;5425928;26;1286;-92
2024/05/06 01:22:17;;;;;;;;;;;21.40;56.40;;;;;;5452352;26;1687;-90
2024/05/06 01:24:43;;;;;;;;;;;21.40;56.30;;;;;;5421770;26;942;-91
2024/05/06 01:27:09;;;;;;;;;;;21.30;56.10;;;;;;5390743;26;1188;-91
2024/05/06 01:29:34;;;;;;;;;;;21.40;56.20;;;;;;5445196;26;1829;-90
2024/05/06 01:31:59;;;;;;;;;;;21.40;56.20;;;;;;5457669;26;945;-91
2024/05/06 01:34:25;;;;;;;;;;;21.40;56.30;;;;;;5457988;26;945;-91
2024/05/06 01:36:50;;;;;;;;;;;21.30;56.10;;;;;;5458208;26;985;-91
2024/05/06 01:39:15;;;;;;;;;;;21.40;56.30;;;;;;5408473;26;1510;-91
2024/05/06 01:41:41;;;;;;;;;;;21.40;56.30;;;;;;5457215;26;1315;-92
2024/05/06 01:44:06;;;;;;;;;;;21.30;56.20;;;;;;5460448;26;1456;-91
2024/05/06 01:46:31;;;;;;;;;;;21.40;56.30;;;;;;5478225;26;1555;-91
2024/05/06 01:48:57;;;;;;;;;;;21.40;56.20;;;;;;5493301;26;1868;-91
2024/05/06 01:51:22;;;;;;;;;;;21.40;56.20;;;;;;5437002;26;1573;-91
2024/05/06 01:53:47;;;;;;;;;;;21.30;56.70;;;;;;5466445;26;1417;-91
2024/05/06 01:56:13;;;;;;;;;;;21.30;56.10;;;;;;5493626;26;835;-91
2024/05/06 01:58:38;;;;;;;;;;;21.30;56.10;;;;;;5447524;26;1502;-90
2024/05/06 02:01:03;;;;;;;;;;;21.30;56.10;;;;;;5421395;26;1479;-91
2024/05/06 02:03:29;;;;;;;;;;;21.30;56.10;;;;;;5422040;26;1502;-92
2024/05/06 02:05:54;;;;;;;;;;;21.30;56.00;;;;;;5428465;26;1359;-91
2024/05/06 02:08:20;;;;;;;;;;;21.30;56.10;;;;;;5456356;26;1828;-91
2024/05/06 02:10:45;;;;;;;;;;;21.30;56.10;;;;;;5425544;26;1427;-91
2024/05/06 02:13:10;;;;;;;;;;;21.30;56.10;;;;;;5457982;26;1528;-92
2024/05/06 02:15:36;;;;;;;;;;;21.30;56.10;;;;;;5457075;26;839;-91
2024/05/06 02:18:01;;;;;;;;;;;21.30;56.00;;;;;;5456978;26;1081;-91
2024/05/06 02:20:26;;;;;;;;;;;21.30;56.10;;;;;;5425195;26;1507;-91
2024/05/06 02:22:52;;;;;;;;;;;21.30;56.00;;;;;;5457808;26;1447;-91
2024/05/06 02:25:17;;;;;;;;;;;21.30;56.10;;;;;;5475959;26;1559;-91
2024/05/06 02:27:42;;;;;;;;;;;21.30;56.00;;;;;;5493056;26;1907;-91
2024/05/06 02:30:08;;;;;;;;;;;21.30;56.00;;;;;;5460604;26;1318;-91
2024/05/06 02:32:33;;;;;;;;;;;21.30;56.00;;;;;;5489937;26;1364;-91
2024/05/06 02:34:58;;;;;;;;;;;21.30;56.00;;;;;;5492209;26;1474;-90
2024/05/06 02:37:24;;;;;;;;;;;21.30;56.10;;;;;;5457869;26;1450;-91
2024/05/06 02:39:49;;;;;;;;;;;21.30;56.10;;;;;;5456341;26;1061;-91
2024/05/06 02:42:14;;;;;;;;;;;21.30;56.00;;;;;;5488059;26;1362;-91
2024/05/06 02:44:40;;;;;;;;;;;21.30;56.00;;;;;;5473526;26;1420;-91
2024/05/06 02:47:05;;;;;;;;;;;21.30;56.00;;;;;;5475372;26;1406;-91
2024/05/06 02:49:31;;;;;;;;;;;21.30;56.00;;;;;;5456842;26;1825;-91
2024/05/06 02:51:56;;;;;;;;;;;21.30;55.90;;;;;;5486910;26;1414;-91
2024/05/06 02:54:21;;;;;;;;;;;21.30;55.90;;;;;;5493827;26;1447;-91
2024/05/06 02:56:47;;;;;;;;;;;21.30;55.90;;;;;;5428299;26;1228;-91
2024/05/06 02:59:12;;;;;;;;;;;21.30;55.90;;;;;;5428347;26;1340;-91
2024/05/06 03:01:37;;;;;;;;;;;21.30;55.90;;;;;;5453299;21;2390;-91
2024/05/06 03:04:03;;;;;;;;;;;21.30;55.90;;;;;;5424819;26;962;-91
2024/05/06 03:06:28;;;;;;;;;;;21.30;55.90;;;;;;5424330;26;1116;-91
2024/05/06 03:08:53;;;;;;;;;;;21.30;55.90;;;;;;5424574;26;1836;-91
2024/05/06 03:11:19;;;;;;;;;;;21.30;55.90;;;;;;5392751;26;1523;-91
2024/05/06 03:13:44;;;;;;;;;;;21.30;55.90;;;;;;5424436;26;945;-91
2024/05/06 03:16:09;;;;;;;;;;;21.30;55.80;;;;;;5424483;26;1108;-91
2024/05/06 03:18:35;;;;;;;;;;;21.30;55.80;;;;;;5392919;26;1327;-91
2024/05/06 03:21:00;;;;;;;;;;;21.30;55.80;;;;;;5445677;26;1522;-91
2024/05/06 03:23:26;;;;;;;;;;;21.30;55.80;;;;;;5425252;26;1488;-91
2024/05/06 03:25:51;;;;;;;;;;;21.30;55.70;;;;;;5460292;26;1058;-91
2024/05/06 03:28:16;;;;;;;;;;;21.30;55.80;;;;;;5460597;26;1821;-91
2024/05/06 03:30:42;;;;;;;;;;;21.30;55.80;;;;;;5459352;26;1647;-91
2024/05/06 03:33:07;;;;;;;;;;;21.30;55.80;;;;;;5443458;26;1545;-91
2024/05/06 03:35:32;;;;;;;;;;;21.30;55.80;;;;;;5460126;26;1080;-91
2024/05/06 03:37:58;;;;;;;;;;;21.30;55.80;;;;;;5428255;26;1297;-91
2024/05/06 03:40:23;;;;;;;;;;;21.30;55.80;;;;;;5460229;26;1025;-91
2024/05/06 03:42:48;;;;;;;;;;;21.30;55.80;;;;;;5423398;26;1518;-91
2024/05/06 03:45:14;;;;;;;;;;;21.30;55.80;;;;;;5392573;26;1278;-91
2024/05/06 03:47:39;;;;;;;;;;;21.30;55.70;;;;;;5423243;26;1117;-91
2024/05/06 03:50:04;;;;;;;;;;;21.20;55.70;;;;;;5423550;26;1835;-91
2024/05/06 03:52:32;;;;;;;;;;;21.20;55.60;;;;;;5429060;26;1570;-91
2024/05/06 03:54:57;;;;;;;;;;;21.20;55.60;;;;;;5427737;26;1573;-91
2024/05/06 03:57:23;;;;;;;;;;;21.30;55.60;;;;;;5459855;26;1041;-91
2024/05/06 03:59:48;;;;;;;;;;;21.30;56.30;;;;;;5459597;26;1044;-91
2024/05/06 04:02:13;;;;;;;;;;;21.20;55.60;;;;;;5428001;26;1253;-91
2024/05/06 04:04:39;;;;;;;;;;;21.30;55.60;;;;;;5434511;26;1590;-91
2024/05/06 04:07:04;;;;;;;;;;;21.20;55.60;;;;;;5392921;26;1708;-91
2024/05/06 04:09:30;;;;;;;;;;;21.30;55.70;;;;;;5423138;26;1814;-91
2024/05/06 04:11:55;;;;;;;;;;;21.30;55.60;;;;;;5392431;26;1190;-91
2024/05/06 04:14:20;;;;;;;;;;;21.30;55.60;;;;;;5433743;26;1545;-92
2024/05/06 04:16:46;;;;;;;;;;;21.30;55.60;;;;;;5430483;26;1702;-91
2024/05/06 04:19:11;;;;;;;;;;;21.20;55.60;;;;;;5424209;26;1271;-91
2024/05/06 04:21:36;;;;;;;;;;;21.30;55.60;;;;;;5423170;26;1090;-91
2024/05/06 04:29:30;;;;;;;;;;;21.30;55.70;;;;;;5424979;26;1841;-91
2024/05/06 04:31:59;;;;;;;;;;;21.30;55.60;;;;;;5397099;26;1597;-92
2024/05/06 04:34:24;;;;;;;;;;;21.20;55.60;;;;;;5459926;26;1502;-91
2024/05/06 04:36:50;;;;;;;;;;;21.20;55.50;;;;;;5459642;26;1001;-90
2024/05/06 04:39:15;;;;;;;;;;;21.30;55.60;;;;;;5428144;26;1336;-91
2024/05/06 04:41:40;;;;;;;;;;;21.30;55.60;;;;;;5459059;26;811;-91
2024/05/06 04:44:06;;;;;;;;;;;21.20;55.50;;;;;;5452901;26;1428;-92
2024/05/06 04:46:31;;;;;;;;;;;21.20;55.50;;;;;;5392979;26;1107;-93
2024/05/06 04:48:57;;;;;;;;;;;21.20;55.60;;;;;;5392061;26;1822;-93
2024/05/06 04:51:22;;;;;;;;;;;21.20;58.30;;;;;;5392792;26;1162;-93
2024/05/06 04:53:47;;;;;;;;;;;21.30;60.30;;;;;;5397647;26;1523;-94
2024/05/06 04:56:13;;;;;;;;;;;21.30;64.50;;;;;;5435981;26;1668;-94
2024/05/06 04:58:38;;;;;;;;;;;21.30;64.70;;;;;;5392602;26;1177;-94
2024/05/06 05:01:04;;;;;;;;;;;21.30;64.60;;;;;;5424068;26;1165;-93
2024/05/06 05:03:29;;;;;;;;;;;21.30;64.80;;;;;;5393302;26;1255;-93
2024/05/06 05:05:54;;;;;;;;;;;21.30;63.40;;;;;;5404434;26;1582;-93
2024/05/06 05:08:20;;;;;;;;;;;21.30;62.50;;;;;;5458884;26;1810;-93
2024/05/06 05:10:45;;;;;;;;;;;21.40;62.40;;;;;;5428481;26;1157;-93
2024/05/06 05:13:10;;;;;;;;;;;21.40;61.80;;;;;;5458943;26;865;-93
2024/05/06 05:15:36;;;;;;;;;;;21.40;61.30;;;;;;5456838;26;1593;-93
2024/05/06 05:18:01;;;;;;;;;;;21.40;61.20;;;;;;5459768;26;1557;-93
2024/05/06 05:20:26;;;;;;;;;;;21.30;60.80;;;;;;5459119;26;1150;-93
2024/05/06 05:22:52;;;;;;;;;;;21.30;60.90;;;;;;5459260;26;970;-93
2024/05/06 05:25:17;;;;;;;;;;;21.40;60.80;;;;;;5459197;26;900;-92
2024/05/06 05:27:42;;;;;;;;;;;21.40;60.50;;;;;;5410115;26;1534;-93
2024/05/06 05:30:08;;;;;;;;;;;21.30;58.70;;;;;;5426683;26;1836;-93
2024/05/06 05:32:33;;;;;;;;;;;21.40;60.20;;;;;;5458971;26;1104;-93
2024/05/06 05:34:59;;;;;;;;;;;21.40;60.30;;;;;;5426540;26;1317;-93
2024/05/06 05:37:24;;;;;;;;;;;21.40;60.10;;;;;;5402093;26;1609;-92
2024/05/06 05:39:49;;;;;;;;;;;21.40;60.00;;;;;;5421724;26;996;-92
2024/05/06 05:42:15;;;;;;;;;;;21.40;60.00;;;;;;5390569;26;1903;-92
2024/05/06 05:44:40;;;;;;;;;;;21.40;59.80;;;;;;5404842;26;1058;-93
2024/05/06 05:47:05;;;;;;;;;;;21.40;59.70;;;;;;5421662;26;1160;-92
2024/05/06 05:49:31;;;;;;;;;;;21.40;59.70;;;;;;5394773;26;1852;-90
2024/05/06 05:51:56;;;;;;;;;;;21.40;59.60;;;;;;5395038;26;1319;-91
2024/05/06 05:54:22;;;;;;;;;;;21.40;59.60;;;;;;5392642;26;1492;-92
2024/05/06 05:56:47;;;;;;;;;;;21.40;59.50;;;;;;5392775;26;1190;-92
2024/05/06 05:59:13;;;;;;;;;;;21.40;59.50;;;;;;5424485;26;1096;-91
2024/05/06 06:01:38;;;;;;;;;;;21.40;59.50;;;;;;5422602;26;1180;-91
2024/05/06 06:04:05;;;;;;;;;;;21.40;59.30;;;;;;5422687;26;880;-92
2024/05/06 06:06:30;;;;;;;;;;;21.40;59.30;;;;;;5391308;26;1337;-91
2024/05/06 06:08:56;;;;;;;;;;;21.40;59.30;;;;;;5422105;26;1810;-91
2024/05/06 06:11:22;;;;;;;;;;;21.40;59.20;;;;;;5393496;26;1352;-91
2024/05/06 06:13:47;;;;;;;;;;;21.40;59.10;;;;;;5422643;26;938;-92
2024/05/06 06:16:13;;;;;;;;;;;21.40;59.00;;;;;;5392194;26;1336;-92
2024/05/06 06:18:38;;;;;;;;;;;21.40;59.00;;;;;;5423590;26;1210;-91
2024/05/06 06:21:03;;;;;;;;;;;21.40;59.00;;;;;;5423252;26;959;-91
2024/05/06 06:23:29;;;;;;;;;;;21.40;58.80;;;;;;5423516;26;1042;-92
2024/05/06 06:25:54;;;;;;;;;;;21.40;58.80;;;;;;5425503;26;877;-92
2024/05/06 06:28:19;;;;;;;;;;;21.40;58.70;;;;;;5425944;26;1847;-92
2024/05/06 06:30:45;;;;;;;;;;;21.40;58.60;;;;;;5425799;26;997;-92
2024/05/06 06:33:10;;;;;;;;;;;21.40;58.60;;;;;;5425397;26;1105;-92
2024/05/06 06:35:35;;;;;;;;;;;21.40;58.50;;;;;;5425569;26;880;-92
2024/05/06 06:38:01;;;;;;;;;;;21.40;58.40;;;;;;5425212;26;1075;-92
2024/05/06 06:40:29;;;;;;;;;;;21.40;58.40;;;;;;5425906;26;1045;-92
2024/05/06 06:42:55;;;;;;;;;;;21.40;58.30;;;;;;5395228;26;1290;-92
2024/05/06 06:45:20;;;;;;;;;;;21.40;58.30;;;;;;5425736;26;1062;-92
2024/05/06 06:47:45;;;;;;;;;;;21.50;58.30;;;;;;5426069;26;889;-92
2024/05/06 06:50:11;;;;;;;;;;;21.40;58.20;;;;;;5426568;26;1802;-92
2024/05/06 06:52:37;;;;;;;;;;;21.40;58.20;;;;;;5426472;26;890;-92
2024/05/06 06:55:03;;;;;;;;;;;21.40;58.10;;;;;;5426757;26;856;-93
2024/05/06 06:57:28;;;;;;;;;;;21.40;58.00;;;;;;5426605;26;1039;-92
2024/05/06 06:59:54;;;;;;;;;;;21.40;58.00;;;;;;5394970;26;1231;-92
2024/05/06 07:02:19;;;;;;;;;;;21.50;57.90;;;;;;5425669;26;1233;-92
2024/05/06 07:04:44;;;;;;;;;;;21.50;58.00;;;;;;5393711;26;1309;-92
2024/05/06 07:07:10;;;;;;;;;;;21.50;58.00;;;;;;5425779;26;946;-92
2024/05/06 07:09:35;;;;;;;;;;;21.50;57.90;;;;;;5426500;26;1805;-92
2024/05/06 07:12:00;;;;;;;;;;;21.50;57.80;;;;;;5426957;26;1017;-92
2024/05/06 07:14:26;;;;;;;;;;;21.50;57.80;;;;;;5427067;26;878;-92
2024/05/06 07:16:51;;;;;;;;;;;21.50;57.70;;;;;;5427223;26;1042;-92
2024/05/06 07:19:16;;;;;;;;;;;21.50;57.60;;;;;;5427053;26;1675;-92
2024/05/06 07:21:43;;;;;;;;;;;21.50;57.60;;;;;;5396680;26;1233;-92
2024/05/06 07:24:09;;;;;;;;;;;21.50;57.50;;;;;;5397448;26;1302;-92
2024/05/06 07:26:34;;;;;;;;;;;21.50;57.50;;;;;;5396475;26;1247;-92
2024/05/06 07:29:00;;;;;;;;;;;21.50;57.50;;;;;;5398679;26;1810;-92
2024/05/06 07:31:25;;;;;;;;;;;21.50;57.40;;;;;;5399830;26;1189;-92
2024/05/06 07:33:50;;;;;;;;;;;21.50;57.40;;;;;;5431117;26;1096;-92
2024/05/06 07:36:16;;;;;;;;;;;21.50;57.30;;;;;;5414444;26;1164;-91
2024/05/06 07:38:41;;;;;;;;;;;21.50;57.30;;;;;;5415076;26;1161;-92
2024/05/06 07:41:06;;;;;;;;;;;21.50;57.20;;;;;;5445228;26;931;-91
2024/05/06 07:43:32;;;;;;;;;;;21.50;57.20;;;;;;5415115;26;1246;-91
2024/05/06 07:45:57;;;;;;;;;;;21.50;57.20;;;;;;5415043;26;1199;-92
2024/05/06 07:48:23;;;;;;;;;;;21.50;57.10;;;;;;5415084;26;1814;-91
2024/05/06 07:50:48;;;;;;;;;;;21.50;57.10;;;;;;5415081;26;1251;-91
2024/05/06 07:53:14;;;;;;;;;;;21.50;57.00;;;;;;5445161;26;856;-92
2024/05/06 07:55:39;;;;;;;;;;;21.50;57.00;;;;;;5445190;26;913;-92
2024/05/06 07:58:04;;;;;;;;;;;21.50;57.00;;;;;;5445009;26;853;-92
2024/05/06 08:00:35;;;;;;;;;;;21.50;57.00;;;;;;5444678;26;1099;-92
2024/05/06 08:03:00;;;;;;;;;;;21.50;56.90;;;;;;5444950;26;659;-93
2024/05/06 08:05:26;;;;;;;;;;;21.50;56.90;;;;;;5444363;26;902;-92
2024/05/06 08:07:52;;;;;;;;;;;21.50;56.90;;;;;;5444006;26;1844;-91
2024/05/06 08:10:17;;;;;;;;;;;21.50;56.90;;;;;;5413643;26;1090;-92
2024/05/06 08:12:43;;;;;;;;;;;21.50;56.90;;;;;;5398734;26;1173;-92
2024/05/06 08:15:08;;;;;;;;;;;21.50;56.90;;;;;;5424496;26;912;-92
2024/05/06 08:17:33;;;;;;;;;;;21.50;56.90;;;;;;5393016;26;1342;-92
2024/05/06 08:19:59;;;;;;;;;;;21.50;57.10;;;;;;5424083;26;1207;-92
2024/05/06 08:22:24;;;;;;;;;;;21.50;57.60;;;;;;5393047;26;1241;-92
2024/05/06 08:24:50;;;;;;;;;;;21.50;57.70;;;;;;5423906;26;1034;-91
2024/05/06 08:27:15;;;;;;;;;;;21.50;58.10;;;;;;5393018;26;1218;-92
2024/05/06 08:29:46;;;;;;;;;;;21.50;58.10;;;;;;5395805;26;1830;-91
2024/05/06 08:32:11;;;;;;;;;;;21.50;58.00;;;;;;5401829;26;1378;-91
2024/05/06 08:34:36;;;;;;;;;;;21.50;57.80;;;;;;5427023;26;940;-91
2024/05/06 08:37:02;;;;;;;;;;;21.50;57.70;;;;;;5426805;26;931;-92
2024/05/06 08:39:27;;;;;;;;;;;21.50;57.60;;;;;;5395582;26;1196;-92
2024/05/06 08:41:52;;;;;;;;;;;21.50;57.50;;;;;;5430105;26;893;-91
2024/05/06 08:44:18;;;;;;;;;;;21.50;57.50;;;;;;5429476;26;844;-92
2024/05/06 08:46:43;;;;;;;;;;;21.50;57.40;;;;;;5427000;26;1105;-93
2024/05/06 08:49:09;;;;;;;;;;;21.50;57.40;;;;;;5398715;26;1809;-92
2024/05/06 08:51:34;;;;;;;;;;;21.50;57.30;;;;;;5398297;26;1248;-93
2024/05/06 08:54:00;;;;;;;;;;;21.50;57.30;;;;;;5395975;26;1264;-92
2024/05/06 08:56:33;;;;;;;;;;;21.50;57.20;;;;;;5394391;26;1221;-93
2024/05/06 08:58:58;;;;;;;;;;;21.50;57.20;;;;;;5392933;26;1237;-93
2024/05/06 09:01:24;;;;;;;;;;;21.50;57.10;;;;;;5393676;26;1177;-92
2024/05/06 09:03:49;;;;;;;;;;;21.60;57.20;;;;;;5392342;26;1187;-92
2024/05/06 09:06:15;;;;;;;;;;;21.50;57.30;;;;;;5424439;26;870;-93
2024/05/06 09:08:40;;;;;;;;;;;21.50;57.50;;;;;;5392725;26;1836;-92
2024/05/06 09:11:05;;;;;;;;;;;21.60;57.70;;;;;;5392835;26;1166;-93
2024/05/06 09:13:31;;;;;;;;;;;21.60;57.80;;;;;;5392342;26;1105;-93
2024/05/06 09:15:57;;;;;;;;;;;21.60;57.70;;;;;;5392437;26;1315;-92
2024/05/06 09:18:22;;;;;;;;;;;21.60;57.70;;;;;;5392401;26;1352;-93
2024/05/06 09:20:47;;;;;;;;;;;21.60;57.70;;;;;;5423505;26;1202;-92
2024/05/06 09:23:13;;;;;;;;;;;21.60;57.60;;;;;;5392293;26;1189;-92
2024/05/06 09:25:38;;;;;;;;;;;21.60;57.60;;;;;;5424243;26;1093;-93
2024/05/06 09:28:04;;;;;;;;;;;21.60;57.60;;;;;;5392319;26;1845;-93
2024/05/06 09:30:29;;;;;;;;;;;21.60;57.50;;;;;;5423501;26;1082;-93
2024/05/06 09:32:54;;;;;;;;;;;21.60;57.40;;;;;;5393029;26;1226;-93
2024/05/06 09:35:20;;;;;;;;;;;21.60;57.40;;;;;;5392299;26;1190;-93
2024/05/06 09:37:45;;;;;;;;;;;21.60;57.30;;;;;;5424267;26;1025;-93
2024/05/06 09:40:10;;;;;;;;;;;21.60;57.20;;;;;;5423439;26;883;-93
2024/05/06 09:42:36;;;;;;;;;;;21.60;57.30;;;;;;5392507;26;1265;-93
2024/05/06 09:45:01;;;;;;;;;;;21.60;57.30;;;;;;5392545;26;1265;-93
2024/05/06 09:47:27;;;;;;;;;;;21.60;57.20;;;;;;5392596;26;1324;-92
2024/05/06 09:49:53;;;;;;;;;;;21.60;57.20;;;;;;5392589;26;1826;-93
2024/05/06 09:52:18;;;;;;;;;;;21.70;57.20;;;;;;5393007;26;1275;-92
2024/05/06 09:54:44;;;;;;;;;;;21.60;57.10;;;;;;5424117;26;1025;-93
2024/05/06 09:57:09;;;;;;;;;;;21.60;57.10;;;;;;5424068;26;863;-93
2024/05/06 09:59:35;;;;;;;;;;;21.60;57.10;;;;;;5423715;26;985;-93
2024/05/06 10:02:00;;;;;;;;;;;21.60;57.10;;;;;;5392344;26;1337;-93
2024/05/06 10:04:26;;;;;;;;;;;21.60;57.10;;;;;;5423303;26;1025;-93
2024/05/06 10:06:51;;;;;;;;;;;21.60;57.10;;;;;;5425629;26;928;-93
2024/05/06 10:09:16;;;;;;;;;;;21.70;57.10;;;;;;5423601;26;1840;-92
2024/05/06 10:11:42;;;;;;;;;;;21.60;57.10;;;;;;5423383;26;856;-91
2024/05/06 10:14:07;;;;;;;;;;;21.60;57.10;;;;;;5391753;26;1181;-92
2024/05/06 10:16:33;;;;;;;;;;;21.60;57.20;;;;;;5425293;26;881;-92
2024/05/06 10:18:58;;;;;;;;;;;21.60;57.20;;;;;;5422671;26;1177;-92
2024/05/06 10:21:23;;;;;;;;;;;21.60;57.20;;;;;;5391565;26;1241;-92
2024/05/06 10:23:49;;;;;;;;;;;21.60;57.20;;;;;;5391981;26;1174;-93
2024/05/06 10:26:14;;;;;;;;;;;21.60;57.20;;;;;;5423307;26;903;-92
2024/05/06 10:28:39;;;;;;;;;;;21.70;57.30;;;;;;5423129;26;2202;-92
2024/05/06 10:31:05;;;;;;;;;;;21.70;57.30;;;;;;5391639;26;1256;-93
2024/05/06 10:33:30;;;;;;;;;;;21.60;57.20;;;;;;5391267;26;1295;-93
2024/05/06 10:35:56;;;;;;;;;;;21.60;57.20;;;;;;5391175;26;1520;-93
2024/05/06 10:38:21;;;;;;;;;;;21.70;57.30;;;;;;5423347;26;906;-92
2024/05/06 10:40:46;;;;;;;;;;;21.60;57.20;;;;;;5423408;26;926;-92
2024/05/06 10:43:12;;;;;;;;;;;21.70;57.30;;;;;;5422568;26;848;-93
2024/05/06 10:45:38;;;;;;;;;;;21.60;57.20;;;;;;5422348;26;986;-92
2024/05/06 10:48:05;;;;;;;;;;;21.70;57.30;;;;;;5422745;26;1802;-93
2024/05/06 10:50:31;;;;;;;;;;;21.70;57.40;;;;;;5422786;26;848;-93
2024/05/06 10:52:56;;;;;;;;;;;21.70;57.40;;;;;;5391495;26;1313;-92
2024/05/06 10:55:21;;;;;;;;;;;21.60;57.20;;;;;;5422489;26;1049;-92
2024/05/06 10:57:47;;;;;;;;;;;21.70;57.30;;;;;;5392096;26;1194;-93
2024/05/06 11:00:12;;;;;;;;;;;21.70;57.30;;;;;;5391619;26;1411;-92
2024/05/06 11:02:38;;;;;;;;;;;21.70;57.40;;;;;;5423394;26;1033;-93
2024/05/06 11:05:03;;;;;;;;;;;21.70;57.90;;;;;;5392610;26;1328;-93
2024/05/06 11:07:29;;;;;;;;;;;21.70;57.40;;;;;;5422733;26;1053;-92
2024/05/06 11:09:54;;;;;;;;;;;21.60;57.20;;;;;;5422996;26;1822;-92
2024/05/06 11:12:19;;;;;;;;;;;21.70;57.30;;;;;;5396597;26;1266;-91
2024/05/06 11:14:47;;;;;;;;;;;21.60;57.20;;;;;;5427762;26;930;-91
2024/05/06 11:17:12;;;;;;;;;;;21.70;57.30;;;;;;5426655;26;836;-91
2024/05/06 11:19:38;;;;;;;;;;;21.70;57.30;;;;;;5395826;26;1166;-90
2024/05/06 11:22:03;;;;;;;;;;;21.60;57.20;;;;;;5395831;26;1277;-91
2024/05/06 11:24:28;;;;;;;;;;;21.70;57.20;;;;;;5432031;26;863;-91
2024/05/06 11:26:54;;;;;;;;;;;21.60;57.10;;;;;;5428617;26;1085;-90
2024/05/06 11:29:19;;;;;;;;;;;21.60;57.10;;;;;;5427170;26;1811;-91
2024/05/06 11:31:45;;;;;;;;;;;21.70;57.20;;;;;;5429373;26;1105;-91
2024/05/06 11:34:10;;;;;;;;;;;21.70;57.20;;;;;;5430349;26;1073;-91
2024/05/06 11:36:35;;;;;;;;;;;21.70;57.30;;;;;;5430906;26;962;-91
2024/05/06 11:39:01;;;;;;;;;;;21.70;57.20;;;;;;5400791;26;1261;-91
2024/05/06 11:41:26;;;;;;;;;;;21.60;57.10;;;;;;5431314;26;1012;-91
2024/05/06 11:43:53;;;;;;;;;;;21.60;57.10;;;;;;5438799;26;855;-90
2024/05/06 11:46:19;;;;;;;;;;;21.60;57.00;;;;;;5415076;26;1219;-91
2024/05/06 11:48:44;;;;;;;;;;;21.70;57.10;;;;;;5443130;26;1847;-92
2024/05/06 11:51:09;;;;;;;;;;;21.60;56.90;;;;;;5443006;26;1081;-89
2024/05/06 11:53:35;;;;;;;;;;;21.70;57.00;;;;;;5444957;26;886;-90
2024/05/06 11:56:00;;;;;;;;;;;21.60;56.90;;;;;;5444868;26;905;-89
2024/05/06 11:58:26;;;;;;;;;;;21.60;56.90;;;;;;5444979;26;861;-89
2024/05/06 12:00:52;;;;;;;;;;;21.60;56.90;;;;;;5444558;26;1198;-88
2024/05/06 12:03:17;;;;;;;;;;;21.60;56.90;;;;;;5445001;26;893;-90
2024/05/06 12:05:43;;;;;;;;;;;21.60;56.80;;;;;;5444933;26;806;-90
2024/05/06 12:08:08;;;;;;;;;;;21.60;56.80;;;;;;5414843;26;1840;-91
2024/05/06 12:10:33;;;;;;;;;;;21.60;56.80;;;;;;5444914;26;917;-91
2024/05/06 12:12:59;;;;;;;;;;;21.60;56.80;;;;;;5444965;26;887;-92
2024/05/06 12:15:24;;;;;;;;;;;21.60;56.80;;;;;;5441675;26;875;-91
2024/05/06 12:17:49;;;;;;;;;;;21.60;56.80;;;;;;5442350;26;1030;-91
2024/05/06 12:20:15;;;;;;;;;;;21.60;56.70;;;;;;5442759;26;1158;-92
2024/05/06 12:22:40;;;;;;;;;;;21.60;56.80;;;;;;5424786;26;1061;-91
2024/05/06 12:25:06;;;;;;;;;;;21.60;56.70;;;;;;5393542;26;1211;-92
2024/05/06 12:27:31;;;;;;;;;;;21.60;56.70;;;;;;5393495;26;1451;-92
2024/05/06 12:29:56;;;;;;;;;;;21.60;56.70;;;;;;5393653;26;1818;-92
2024/05/06 12:32:22;;;;;;;;;;;21.60;56.70;;;;;;5392854;26;1356;-92
2024/05/06 12:34:47;;;;;;;;;;;21.60;56.70;;;;;;5424741;26;827;-91
2024/05/06 12:37:13;;;;;;;;;;;21.60;56.60;;;;;;5392817;26;1131;-91
2024/05/06 12:39:40;;;;;;;;;;;21.60;56.70;;;;;;5424227;26;929;-92
2024/05/06 12:42:05;;;;;;;;;;;21.60;56.80;;;;;;5424509;26;868;-92
2024/05/06 12:44:30;;;;;;;;;;;21.60;57.00;;;;;;5427992;26;922;-92
2024/05/06 12:46:56;;;;;;;;;;;21.60;57.10;;;;;;5427166;26;918;-92
2024/05/06 12:49:21;;;;;;;;;;;21.60;57.10;;;;;;5428962;26;1802;-92
2024/05/06 12:51:47;;;;;;;;;;;21.60;57.10;;;;;;5427096;26;977;-92
2024/05/06 12:54:12;;;;;;;;;;;21.60;57.10;;;;;;5426348;26;838;-92
2024/05/06 12:56:39;;;;;;;;;;;21.60;57.20;;;;;;5395654;26;1302;-91
2024/05/06 12:59:04;;;;;;;;;;;21.50;57.10;;;;;;5434573;26;906;-93
2024/05/06 13:01:30;;;;;;;;;;;21.50;57.20;;;;;;5430752;26;1111;-91
2024/05/06 13:03:55;;;;;;;;;;;21.50;57.30;;;;;;5401904;21;3530;-86
2024/05/06 13:06:22;;;;;;;;;;;21.50;57.50;;;;;;5384919;26;939;-86
2024/05/06 13:08:48;;;;;;;;;;;21.50;57.50;;;;;;5382678;26;1892;-88
2024/05/06 13:11:13;;;;;;;;;;;21.50;57.60;;;;;;5384769;26;942;-87
2024/05/06 13:13:39;;;;;;;;;;;21.50;57.70;;;;;;5384835;26;1046;-87
2024/05/06 13:16:04;;;;;;;;;;;21.50;57.70;;;;;;5382983;26;1276;-85
2024/05/06 13:18:33;;;;;;;;;;;21.50;57.90;;;;;;5383123;26;1175;-85
2024/05/06 13:20:59;;;;;;;;;;;21.50;57.90;;;;;;5384676;26;856;-85
2024/05/06 13:23:24;;;;;;;;;;;21.50;58.10;;;;;;5385164;26;916;-86
2024/05/06 13:25:49;;;;;;;;;;;21.50;58.20;;;;;;5384754;26;869;-85
2024/05/06 13:28:15;;;;;;;;;;;21.50;58.20;;;;;;5384799;26;1861;-85
2024/05/06 13:30:40;;;;;;;;;;;21.60;58.40;;;;;;5392705;26;1199;-85
2024/05/06 13:33:05;;;;;;;;;;;21.50;58.30;;;;;;5420568;26;1034;-85
2024/05/06 13:35:31;;;;;;;;;;;21.50;58.30;;;;;;5419445;26;931;-85
2024/05/06 13:37:56;;;;;;;;;;;21.50;59.00;;;;;;5388625;26;1137;-85
2024/05/06 13:40:22;;;;;;;;;;;21.50;58.60;;;;;;5420198;26;1055;-85
2024/05/06 13:42:47;;;;;;;;;;;21.50;58.60;;;;;;5419664;26;876;-85
2024/05/06 13:45:12;;;;;;;;;;;21.50;58.70;;;;;;5419627;26;927;-84
2024/05/06 13:47:38;;;;;;;;;;;21.50;58.80;;;;;;5419759;26;955;-84
2024/05/06 13:50:03;;;;;;;;;;;21.60;59.00;;;;;;5419693;26;1834;-83
2024/05/06 13:52:28;;;;;;;;;;;21.50;59.00;;;;;;5419432;26;968;-84
2024/05/06 13:54:54;;;;;;;;;;;21.60;59.00;;;;;;5419345;26;994;-84
2024/05/06 13:57:19;;;;;;;;;;;21.50;59.10;;;;;;5419405;26;852;-84
2024/05/06 13:59:44;;;;;;;;;;;21.50;59.10;;;;;;5419173;26;893;-85
2024/05/06 14:02:10;;;;;;;;;;;21.50;59.10;;;;;;5419048;26;1065;-84
2024/05/06 14:04:35;;;;;;;;;;;21.50;59.20;;;;;;5418941;26;1030;-85
2024/05/06 14:07:00;;;;;;;;;;;21.60;59.20;;;;;;5418395;26;899;-84
2024/05/06 14:09:26;;;;;;;;;;;21.60;59.40;;;;;;5418873;26;1810;-86
2024/05/06 14:11:51;;;;;;;;;;;21.50;61.20;;;;;;5419283;26;939;-87
2024/05/06 14:14:17;;;;;;;;;;;21.60;59.60;;;;;;5418834;26;1019;-85
2024/05/06 14:16:42;;;;;;;;;;;21.50;59.40;;;;;;5418444;26;1096;-86
2024/05/06 14:19:07;;;;;;;;;;;21.60;59.60;;;;;;5418736;26;860;-85
2024/05/06 14:21:33;;;;;;;;;;;21.60;59.60;;;;;;5418553;26;1065;-86
2024/05/06 14:23:58;;;;;;;;;;;21.50;59.70;;;;;;5419247;26;904;-85
2024/05/06 14:26:24;;;;;;;;;;;21.50;62.00;;;;;;5418730;26;916;-86
2024/05/06 14:28:49;;;;;;;;;;;21.50;59.90;;;;;;5418654;26;1831;-86